Time;durP1;ratioP1;P1;durP2;ratioP2;P2;SDS_P1;SDS_P2;PMS_P1;PMS_P2;Temp;Humidity;BMP_temperature;BMP_pressure;BME280_temperature;BME280_humidity;BME280_pressure;Samples;Min_cycle;Max_cycle;Signal;HPM_P1;HPM_P2
2021/05/06 00:34:48;;;;;;;10.23;3.53;;;5.50;93.90;;;;;;4958767;29;20054;-87
2021/05/06 00:54:02;;;;;;;10.60;3.58;;;5.50;94.10;;;;;;4958838;29;20126;-87
2021/05/06 00:59:41;;;;;;;4.63;1.92;;;5.60;94.10;;;;;;4958521;29;20093;-87
2021/05/06 01:05:42;;;;;;;12.23;3.58;;;5.70;94.00;;;;;;4958146;29;20094;-87
2021/05/06 01:11:49;;;;;;;7.30;2.78;;;5.80;94.00;;;;;;4958203;29;20097;-87
2021/05/06 01:17:38;;;;;;;7.28;2.45;;;5.90;94.10;;;;;;4957732;29;20145;-87
2021/05/06 01:23:30;;;;;;;7.47;2.38;;;5.90;93.90;;;;;;4958163;29;20086;-88
2021/05/06 01:29:27;;;;;;;6.30;2.28;;;5.90;93.90;;;;;;4957828;29;20041;-88
2021/05/06 01:35:24;;;;;;;11.13;3.63;;;5.90;93.80;;;;;;4957542;29;20062;-89
2021/05/06 01:41:33;;;;;;;12.23;3.50;;;5.90;93.90;;;;;;4957643;29;20391;-88
2021/05/06 01:47:33;;;;;;;6.57;2.55;;;5.90;93.90;;;;;;4957811;29;20045;-87
2021/05/06 01:59:54;;;;;;;11.15;3.40;;;6.00;93.80;;;;;;4957363;29;20062;-86
2021/05/06 02:05:42;;;;;;;8.88;3.10;;;5.80;93.80;;;;;;4957159;29;20050;-86
2021/05/06 02:11:32;;;;;;;6.82;2.17;;;6.00;93.80;;;;;;4957376;28;20046;-86
2021/05/06 02:17:20;;;;;;;8.82;2.42;;;6.00;93.80;;;;;;4956927;29;20119;-86
2021/05/06 02:23:10;;;;;;;7.03;2.40;;;5.60;93.70;;;;;;4956859;29;20086;-86
2021/05/06 02:29:07;;;;;;;9.57;3.45;;;6.00;93.80;;;;;;4956730;29;20070;-86
2021/05/06 02:34:57;;;;;;;11.85;3.55;;;6.10;93.90;;;;;;4956513;29;20053;-86
2021/05/06 02:40:47;;;;;;;9.10;2.28;;;6.10;93.80;;;;;;4956554;29;20115;-86
2021/05/06 02:46:39;;;;;;;9.27;3.33;;;6.10;93.70;;;;;;4956408;29;20082;-86
2021/05/06 02:52:34;;;;;;;13.43;3.20;;;6.10;93.80;;;;;;4957155;29;20034;-86
2021/05/06 02:58:45;;;;;;;13.07;4.05;;;6.10;93.80;;;;;;4956131;29;20038;-86
2021/05/06 03:04:33;;;;;;;11.90;3.30;;;6.10;93.70;;;;;;4957918;29;20388;-86
2021/05/06 03:10:33;;;;;;;7.15;2.05;;;6.10;93.80;;;;;;4957281;29;20034;-84
2021/05/06 03:22:44;;;;;;;14.18;3.67;;;6.10;93.80;;;;;;4956365;29;20042;-85
2021/05/06 03:28:38;;;;;;;7.68;2.55;;;6.20;93.80;;;;;;4956086;29;20125;-85
2021/05/06 04:18:52;;;;;;;13.85;3.25;;;6.60;93.90;;;;;;4955087;29;20054;-89
2021/05/06 05:04:33;;;;;;;11.50;3.50;;;7.40;94.20;;;;;;4974291;28;20029;-89
2021/05/06 05:28:43;;;;;;;12.45;3.60;;;8.30;94.30;;;;;;4977875;28;20138;-82
2021/05/06 05:34:40;;;;;;;11.40;3.33;;;8.40;94.20;;;;;;4977094;28;20041;-88
2021/05/06 05:40:40;;;;;;;3.63;1.80;;;8.50;94.20;;;;;;4977395;28;20054;-91
2021/05/06 05:58:40;;;;;;;8.07;3.03;;;9.10;94.20;;;;;;4977029;28;20439;-90
2021/05/06 06:04:32;;;;;;;9.02;2.70;;;9.40;94.40;;;;;;4977091;28;20080;-85
2021/05/06 06:10:22;;;;;;;12.68;3.83;;;9.70;94.30;;;;;;4976752;28;20079;-86
2021/05/06 06:22:09;;;;;;;10.57;3.53;;;9.80;93.90;;;;;;4976507;28;20089;-86
2021/05/06 06:27:57;;;;;;;5.30;2.47;;;10.00;94.10;;;;;;4976124;28;20081;-86
2021/05/06 06:33:47;;;;;;;12.10;3.45;;;10.20;93.80;;;;;;4976131;28;20038;-86
2021/05/06 06:40:35;;;;;;;9.00;3.03;;;10.40;94.10;;;;;;4976127;28;20046;-87
2021/05/06 06:47:23;;;;;;;10.93;3.20;;;10.40;93.50;;;;;;4975918;28;20061;-87
2021/05/06 06:53:37;;;;;;;9.23;3.10;;;10.70;94.00;;;;;;4956126;29;20034;-87
2021/05/06 06:59:44;;;;;;;11.57;3.60;;;11.70;94.30;;;;;;4956472;29;20043;-87
2021/05/06 07:05:46;;;;;;;7.00;2.47;;;11.10;93.60;;;;;;4956074;29;20035;-86
2021/05/06 07:11:36;;;;;;;7.30;2.25;;;11.20;93.70;;;;;;4956035;29;20077;-85
2021/05/06 07:17:34;;;;;;;6.75;2.78;;;11.40;93.90;;;;;;4955950;29;20387;-85
2021/05/06 07:23:26;;;;;;;11.35;3.08;;;11.80;94.10;;;;;;4956343;29;20073;-86
2021/05/06 07:29:18;;;;;;;4.85;2.13;;;11.70;93.50;;;;;;4956692;29;20388;-86
2021/05/06 07:35:07;;;;;;;7.38;3.03;;;12.00;94.00;;;;;;4955777;29;20055;-87
2021/05/06 07:40:58;;;;;;;9.68;2.63;;;12.00;93.30;;;;;;4955682;29;20025;-88
2021/05/06 07:46:47;;;;;;;7.18;2.90;;;11.80;93.10;;;;;;4955972;29;20067;-87
2021/05/06 07:52:36;;;;;;;8.45;2.85;;;11.80;93.50;;;;;;4975073;28;20085;-87
2021/05/06 07:58:25;;;;;;;11.77;3.10;;;12.10;94.20;;;;;;4974615;28;20150;-87
2021/05/06 08:04:14;;;;;;;11.05;2.55;;;12.60;94.00;;;;;;4974840;28;20030;-85
2021/05/06 08:10:03;;;;;;;8.82;2.97;;;12.60;93.50;;;;;;4974604;28;20513;-86
2021/05/06 08:15:55;;;;;;;5.78;2.28;;;12.60;93.20;;;;;;4974857;28;20448;-88
2021/05/06 08:21:45;;;;;;;7.05;2.67;;;12.60;93.30;;;;;;4974587;28;20026;-89
2021/05/06 08:27:33;;;;;;;8.45;2.83;;;12.80;93.60;;;;;;4974733;28;20081;-88
2021/05/06 08:33:30;;;;;;;14.13;3.40;;;12.70;93.10;;;;;;4974478;28;20094;-88
2021/05/06 08:39:20;;;;;;;11.75;3.80;;;12.60;93.00;;;;;;4974421;28;20081;-87
2021/05/06 08:45:16;;;;;;;10.90;3.20;;;12.70;93.40;;;;;;4978097;28;20501;-88
2021/05/06 08:54:59;;;;;;;7.90;2.88;;;12.30;93.00;;;;;;4977715;28;20082;-87
2021/05/06 09:00:48;;;;;;;7.45;2.60;;;12.10;92.50;;;;;;4977718;28;20499;-87
2021/05/06 09:07:11;;;;;;;9.63;3.15;;;11.90;93.00;;;;;;4977612;28;20505;-88
2021/05/06 09:13:01;;;;;;;8.68;3.17;;;11.90;93.30;;;;;;4977906;28;20057;-88
2021/05/06 09:18:51;;;;;;;10.43;2.90;;;11.80;93.00;;;;;;4977258;28;20086;-88
2021/05/06 09:24:40;;;;;;;15.18;3.95;;;11.70;93.10;;;;;;4977541;28;20033;-87
2021/05/06 09:30:30;;;;;;;10.82;3.30;;;11.60;93.00;;;;;;4977385;28;20074;-88
2021/05/06 09:36:26;;;;;;;4.57;2.47;;;12.00;94.10;;;;;;4977304;28;20117;-87
2021/05/06 09:42:53;;;;;;;11.68;3.58;;;12.00;93.50;;;;;;4977245;28;20037;-89
2021/05/06 09:48:45;;;;;;;8.88;3.13;;;13.20;94.60;;;;;;4976721;28;20034;-87
2021/05/06 09:54:34;;;;;;;11.27;3.25;;;13.60;93.90;;;;;;4956744;28;20131;-89
2021/05/06 10:00:24;;;;;;;6.78;2.58;;;13.40;92.60;;;;;;4957513;29;20034;-89
2021/05/06 10:06:19;;;;;;;9.80;4.10;;;13.10;92.70;;;;;;4957430;29;20075;-85
2021/05/06 10:12:11;;;;;;;12.60;3.40;;;13.10;93.10;;;;;;4957316;29;20387;-86
2021/05/06 10:18:16;;;;;;;8.52;2.20;;;13.40;93.30;;;;;;4957250;29;20520;-88
2021/05/06 10:24:09;;;;;;;7.32;2.67;;;13.30;92.70;;;;;;4956864;29;20042;-87
2021/05/06 10:29:59;;;;;;;8.00;2.28;;;12.90;92.10;;;;;;4956788;29;20456;-88
2021/05/06 10:36:07;;;;;;;10.32;3.00;;;12.90;92.70;;;;;;4956878;29;20082;-88
2021/05/06 10:42:33;;;;;;;3.42;1.75;;;12.60;92.30;;;;;;4956528;29;20081;-88
2021/05/06 10:49:02;;;;;;;14.52;3.17;;;12.50;92.60;;;;;;4956583;29;20203;-89
2021/05/06 10:55:13;;;;;;;8.23;2.88;;;12.80;92.80;;;;;;4956235;29;20519;-89
2021/05/06 11:01:02;;;;;;;8.32;2.95;;;12.50;92.60;;;;;;4956230;29;20050;-87
2021/05/06 11:06:51;;;;;;;13.70;4.05;;;12.20;92.00;;;;;;4955131;28;20030;-85
2021/05/06 11:12:55;;;;;;;15.05;4.15;;;12.20;92.70;;;;;;4956287;29;20038;-85
2021/05/06 11:18:51;;;;;;;12.23;3.42;;;12.10;92.80;;;;;;4955946;29;20078;-86
2021/05/06 11:24:39;;;;;;;3.20;1.33;;;12.00;92.70;;;;;;4955819;29;20089;-87
2021/05/06 11:30:33;;;;;;;9.15;2.60;;;12.00;92.70;;;;;;4955747;29;20091;-87
2021/05/06 11:36:23;;;;;;;14.30;4.10;;;11.80;92.60;;;;;;4955903;29;20027;-88
2021/05/06 11:42:13;;;;;;;13.52;3.70;;;11.70;92.50;;;;;;4956750;29;20104;-87
2021/05/06 11:48:01;;;;;;;7.90;2.72;;;11.80;93.10;;;;;;4957200;29;20403;-89
2021/05/06 11:57:50;;;;;;;10.55;3.55;;;11.90;93.10;;;;;;4975752;28;20101;-89
2021/05/06 12:03:43;;;;;;;7.65;2.28;;;12.00;93.30;;;;;;4974779;28;20073;-85
2021/05/06 12:09:33;;;;;;;11.75;3.15;;;12.10;92.90;;;;;;4974628;28;20101;-87
2021/05/06 12:15:25;;;;;;;7.38;2.72;;;12.10;92.90;;;;;;4974744;28;20383;-87
2021/05/06 12:21:14;;;;;;;14.73;3.25;;;11.90;92.50;;;;;;4978867;28;20089;-87
2021/05/06 12:27:22;;;;;;;10.85;3.25;;;11.90;93.00;;;;;;4978664;28;20026;-89
2021/05/06 12:33:11;;;;;;;8.75;3.92;;;12.00;93.50;;;;;;4978388;28;20534;-87
2021/05/06 12:39:04;;;;;;;9.38;2.78;;;11.50;92.60;;;;;;4978426;28;20034;-87
2021/05/06 12:44:53;;;;;;;8.80;3.22;;;11.90;92.90;;;;;;4978065;28;20038;-86
2021/05/06 12:50:44;;;;;;;3.33;1.92;;;11.90;93.00;;;;;;4978245;28;20037;-86
2021/05/06 13:00:44;;;;;;;;;;;;;;;;;;;;;
2021/05/06 13:06:35;;;;;;;9.73;3.65;;;12.10;93.50;;;;;;4977770;28;20081;-86
2021/05/06 13:12:27;;;;;;;10.20;3.65;;;12.00;93.10;;;;;;4977497;28;20062;-86
2021/05/06 13:18:18;;;;;;;9.38;2.95;;;12.00;92.70;;;;;;4977351;28;20027;-86
2021/05/06 13:24:08;;;;;;;9.00;3.00;;;12.00;93.20;;;;;;4977385;28;20069;-85
2021/05/06 13:30:00;;;;;;;7.15;3.15;;;12.10;93.40;;;;;;4976182;28;20492;-88
2021/05/06 13:36:06;;;;;;;10.60;3.40;;;12.20;93.40;;;;;;4977284;28;20065;-86
2021/05/06 13:41:55;;;;;;;13.90;3.80;;;12.30;93.40;;;;;;4977006;28;20518;-86
2021/05/06 13:47:47;;;;;;;10.35;3.88;;;12.50;93.70;;;;;;4977130;28;20034;-86
2021/05/06 13:53:37;;;;;;;9.68;3.60;;;12.60;93.50;;;;;;4976708;28;20049;-84
2021/05/06 14:03:28;;;;;;;8.80;3.17;;;12.40;92.90;;;;;;4976778;28;20408;-85
2021/05/06 14:09:29;;;;;;;13.57;4.78;;;12.40;93.30;;;;;;4976554;28;20049;-86
2021/05/06 14:15:19;;;;;;;10.57;4.18;;;12.60;93.70;;;;;;4976418;28;20101;-86
2021/05/06 14:21:10;;;;;;;10.27;4.13;;;12.80;93.60;;;;;;4976686;28;20037;-88
2021/05/06 14:27:03;;;;;;;10.70;4.13;;;12.80;93.20;;;;;;4976152;28;20553;-88
2021/05/06 14:32:51;;;;;;;13.38;3.75;;;12.80;93.40;;;;;;4976270;28;20042;-84
2021/05/06 14:38:41;;;;;;;10.85;3.60;;;12.90;93.30;;;;;;4975815;28;20094;-84
2021/05/06 14:44:29;;;;;;;13.45;4.30;;;12.90;93.20;;;;;;4975780;28;20026;-86
2021/05/06 14:50:18;;;;;;;11.85;4.72;;;12.90;93.10;;;;;;4976286;28;20049;-85
2021/05/06 14:56:08;;;;;;;9.82;4.75;;;12.70;93.10;;;;;;4975902;28;20050;-86
2021/05/06 15:05:59;;;;;;;9.27;4.50;;;12.70;93.20;;;;;;4975553;28;20037;-86
2021/05/06 15:11:47;;;;;;;13.55;4.38;;;12.80;93.30;;;;;;4975602;28;20046;-87
2021/05/06 15:17:36;;;;;;;14.05;5.70;;;12.50;93.10;;;;;;4975139;28;20058;-87
2021/05/06 15:23:25;;;;;;;9.75;4.20;;;12.70;92.80;;;;;;4975162;28;20034;-84
2021/05/06 15:29:13;;;;;;;12.88;5.00;;;12.50;92.70;;;;;;4975375;28;20085;-89
2021/05/06 15:35:01;;;;;;;12.05;4.40;;;12.20;93.00;;;;;;4975158;28;20046;-89
2021/05/06 15:40:52;;;;;;;12.68;4.55;;;12.30;93.40;;;;;;4975363;28;20061;-89
2021/05/06 15:46:40;;;;;;;11.88;4.32;;;12.10;92.80;;;;;;4975163;28;20045;-86
2021/05/06 15:52:28;;;;;;;10.73;3.85;;;11.80;92.50;;;;;;4974528;28;20097;-85
2021/05/06 15:58:17;;;;;;;11.32;3.83;;;11.80;93.00;;;;;;4974696;28;20107;-85
2021/05/06 16:07:59;;;;;;;8.73;3.22;;;11.80;93.10;;;;;;4975144;28;20451;-86
2021/05/06 16:13:48;;;;;;;11.57;3.47;;;11.40;92.40;;;;;;4974827;28;20436;-86
2021/05/06 16:19:38;;;;;;;13.02;4.90;;;11.30;93.00;;;;;;4974643;28;20041;-86
2021/05/06 16:25:26;;;;;;;6.75;3.15;;;11.20;93.10;;;;;;4974715;28;20397;-85
2021/05/06 16:31:25;;;;;;;15.10;6.32;;;11.00;93.00;;;;;;4974722;28;20130;-85
2021/05/06 16:48:59;;;;;;;7.28;2.40;;;10.50;92.90;;;;;;4974644;28;20069;-88
2021/05/06 16:54:48;;;;;;;4.00;2.05;;;10.30;92.80;;;;;;4974294;28;20045;-88
2021/05/06 17:00:37;;;;;;;4.10;2.10;;;10.20;93.00;;;;;;4974377;28;20034;-89
2021/05/06 17:10:27;;;;;;;8.60;3.05;;;10.30;93.40;;;;;;4978645;28;20066;-89
2021/05/06 17:16:16;;;;;;;4.22;2.25;;;10.30;93.40;;;;;;4978209;28;20120;-89
2021/05/06 17:22:04;;;;;;;6.05;2.63;;;10.30;93.40;;;;;;4977642;28;20037;-86
2021/05/06 17:27:51;;;;;;;9.50;2.80;;;10.20;93.20;;;;;;4977583;28;20113;-88
2021/05/06 17:33:41;;;;;;;12.38;6.28;;;10.20;93.50;;;;;;4977128;28;20522;-85
2021/05/06 17:39:29;;;;;;;10.05;3.33;;;10.30;93.50;;;;;;4976965;28;20042;-85
2021/05/06 17:45:18;;;;;;;10.10;4.28;;;10.20;93.40;;;;;;4977189;28;20054;-86
2021/05/06 17:51:06;;;;;;;8.05;3.38;;;10.20;93.50;;;;;;4977147;28;20045;-86
2021/05/06 17:56:55;;;;;;;9.10;3.40;;;10.20;93.50;;;;;;4976986;28;20061;-86
2021/05/06 18:02:43;;;;;;;21.85;7.93;;;10.20;93.50;;;;;;4976889;28;20033;-86
2021/05/06 18:12:26;;;;;;;16.15;6.05;;;10.10;93.20;;;;;;4976573;28;20042;-88
2021/05/06 18:18:14;;;;;;;13.55;6.03;;;10.00;93.30;;;;;;4976879;28;20042;-88
2021/05/06 18:24:06;;;;;;;11.30;5.20;;;9.90;93.30;;;;;;4976834;28;20511;-86
2021/05/06 18:29:58;;;;;;;44.33;20.42;;;9.80;93.40;;;;;;4976899;28;20490;-92
2021/05/06 18:35:46;;;;;;;10.35;4.75;;;9.70;93.30;;;;;;4976026;28;20113;-88
2021/05/06 18:41:34;;;;;;;15.13;5.95;;;9.60;93.30;;;;;;4976107;28;20162;-87
2021/05/06 18:47:23;;;;;;;10.80;5.22;;;9.50;93.30;;;;;;4976125;28;20057;-87
2021/05/06 18:53:15;;;;;;;9.27;4.03;;;9.50;93.40;;;;;;4975902;28;20038;-87
2021/05/06 18:59:04;;;;;;;8.73;4.20;;;9.40;93.50;;;;;;4975653;28;20086;-89
2021/05/06 19:04:53;;;;;;;8.20;4.25;;;9.50;93.70;;;;;;4975742;28;20103;-88
2021/05/06 19:14:36;;;;;;;8.93;4.45;;;9.40;93.20;;;;;;4975467;28;20050;-89
2021/05/06 19:20:29;;;;;;;11.05;4.20;;;9.30;93.30;;;;;;4975476;28;20037;-88
2021/05/06 19:26:18;;;;;;;7.97;3.50;;;9.30;93.60;;;;;;4975362;28;20046;-90
2021/05/06 19:32:07;;;;;;;9.18;4.20;;;9.30;93.40;;;;;;4975365;28;20093;-90
2021/05/06 19:37:55;;;;;;;9.55;3.67;;;9.20;93.50;;;;;;4975374;28;20085;-91
2021/05/06 19:43:49;;;;;;;9.60;3.97;;;9.10;93.30;;;;;;4975210;28;20058;-90
2021/05/06 19:49:38;;;;;;;9.85;3.67;;;9.10;93.50;;;;;;4974943;28;20113;-89
2021/05/06 19:55:26;;;;;;;10.57;4.85;;;9.10;93.60;;;;;;4974934;28;20089;-90
2021/05/06 20:01:17;;;;;;;12.25;4.63;;;9.20;93.70;;;;;;4974982;28;20081;-89
2021/05/06 20:07:06;;;;;;;13.65;5.40;;;9.20;93.60;;;;;;4975006;28;20030;-88
2021/05/06 20:17:04;;;;;;;14.45;5.18;;;9.30;93.70;;;;;;4974903;28;20404;-87
2021/05/06 20:22:56;;;;;;;13.15;5.68;;;9.30;93.70;;;;;;4975355;28;20379;-85
2021/05/06 20:28:46;;;;;;;12.43;5.05;;;9.30;93.80;;;;;;4976114;28;20033;-86
2021/05/06 20:34:36;;;;;;;14.38;5.40;;;9.40;93.70;;;;;;4976085;28;20054;-85
2021/05/06 20:40:36;;;;;;;11.05;4.00;;;9.40;93.90;;;;;;4978789;28;20426;-87
2021/05/06 20:46:31;;;;;;;17.60;6.55;;;9.20;93.80;;;;;;4978275;28;20093;-87
2021/05/06 20:52:26;;;;;;;20.63;6.72;;;9.20;93.90;;;;;;4978022;28;20395;-86
2021/05/06 20:58:27;;;;;;;12.55;5.80;;;10.10;94.10;;;;;;4977853;28;20037;-87
2021/05/06 21:04:19;;;;;;;12.50;6.20;;;9.70;93.60;;;;;;4977884;28;20029;-87
2021/05/06 21:10:17;;;;;;;17.48;7.00;;;9.50;93.60;;;;;;4977593;28;20061;-87
2021/05/06 21:20:13;;;;;;;18.63;7.15;;;9.70;94.00;;;;;;4977646;28;20061;-87
2021/05/06 21:26:02;;;;;;;15.18;5.38;;;9.80;94.00;;;;;;4977265;28;20525;-86
2021/05/06 21:31:56;;;;;;;13.20;5.47;;;9.80;94.00;;;;;;4977161;28;20110;-86
2021/05/06 21:37:46;;;;;;;11.85;5.13;;;9.90;94.00;;;;;;4977286;28;20498;-86
2021/05/06 21:43:34;;;;;;;5.50;2.30;;;10.00;94.10;;;;;;4977200;28;20483;-86
2021/05/06 21:49:23;;;;;;;14.48;4.90;;;10.00;94.10;;;;;;4976975;28;20038;-86
2021/05/06 21:55:12;;;;;;;14.27;4.90;;;10.10;94.10;;;;;;4976857;28;20558;-86
2021/05/06 22:01:01;;;;;;;10.00;3.53;;;10.20;94.00;;;;;;4976790;28;20445;-86
2021/05/06 22:06:49;;;;;;;9.95;4.13;;;10.10;93.90;;;;;;4976546;28;20042;-86
2021/05/06 22:12:39;;;;;;;14.05;4.25;;;10.10;93.90;;;;;;4976543;28;20149;-85
2021/05/06 22:18:31;;;;;;;6.47;3.08;;;10.20;94.00;;;;;;4965303;28;20045;-85
2021/05/06 22:24:22;;;;;;;9.10;3.92;;;10.10;93.80;;;;;;4976303;28;20403;-87
2021/05/06 22:30:22;;;;;;;5.00;2.13;;;10.20;94.00;;;;;;4976204;28;20395;-87
2021/05/06 22:36:11;;;;;;;9.95;3.42;;;10.20;94.00;;;;;;4976365;28;20050;-85
2021/05/06 22:42:00;;;;;;;12.52;4.18;;;10.30;94.10;;;;;;4976270;28;20097;-85
2021/05/06 22:47:49;;;;;;;2.22;1.48;;;10.30;94.10;;;;;;4976104;28;20057;-87
2021/05/06 22:53:38;;;;;;;8.80;3.00;;;10.40;94.10;;;;;;4976037;28;20069;-86
2021/05/06 22:59:26;;;;;;;5.22;2.33;;;10.00;94.00;;;;;;4975923;28;20399;-87
2021/05/06 23:05:16;;;;;;;3.42;1.77;;;10.50;94.10;;;;;;4975511;28;20029;-87
2021/05/06 23:11:04;;;;;;;12.48;3.63;;;10.60;94.10;;;;;;4975472;28;20383;-87
2021/05/06 23:16:54;;;;;;;3.58;1.92;;;10.60;94.00;;;;;;4975611;28;20041;-87
2021/05/06 23:22:44;;;;;;;3.13;1.73;;;10.60;94.00;;;;;;4975255;28;20066;-87
2021/05/06 23:28:37;;;;;;;7.03;2.95;;;10.50;93.90;;;;;;4975125;28;20175;-87
2021/05/06 23:34:35;;;;;;;6.97;2.85;;;10.70;94.00;;;;;;4975323;28;20117;-87
2021/05/06 23:40:24;;;;;;;10.90;3.50;;;10.60;93.90;;;;;;4975223;28;20065;-86
2021/05/06 23:46:17;;;;;;;10.52;4.05;;;10.60;93.80;;;;;;4981643;28;20084;-88
2021/05/06 23:52:08;;;;;;;4.90;2.10;;;10.50;93.60;;;;;;4974931;28;20089;-88
2021/05/06 23:58:48;;;;;;;7.03;2.10;;;10.30;93.40;;;;;;4974734;28;20117;-88
